KDBQ/DBQ METAR and TAF weather

Enter ICAO airport designator
Station Type Date Time Source
KDBQ METAR 2019/10/18 10:53 UTC NOAA

KDBQ 181053Z AUTO 16008KT 10SM CLR 04/02 A2997 RMK AO2 SLP156 T00440017


Station Type Date Time Source
KDBQ Decoded METAR 2019/10/18 10:53 UTC NOAA

DUBUQUE REGIONAL AIRPORT, IA, United States (KDBQ) 42-24N 90-42W 326M
Oct 18, 2019 - 06:53 AM EDT / 2019.10.18 1053 UTC
Wind: from the SSE (160 degrees) at 9 MPH (8 KT):0
Visibility: 10 mile(s):0
Sky conditions: clear
Temperature: 39.9 F (4.4 C)
Dew Point: 35.1 F (1.7 C)
Relative Humidity: 82%
Pressure (altimeter): 29.97 in. Hg (1014 hPa)
ob: KDBQ 181053Z AUTO 16008KT 10SM CLR 04/02 A2997 RMK AO2 SLP156 T00440017
cycle: 11

Station Type Date Time Source
KDBQ TAF 2019/10/18 06:22 UTC NOAA

TAF KDBQ 180520Z 1806/1906 13008KT P6SM BKN250
FM181600 16018G27KT P6SM SCT250

Example: see airport list